sensor_id;sensor_type;location;lat;lon;timestamp;P1;durP1;ratioP1;P2;durP2;ratioP2
9117;SDS011;4594;50.994;7.126;2022-10-13T00:01:26;9.70;;;5.97;;
9117;SDS011;4594;50.994;7.126;2022-10-13T00:03:52;10.20;;;6.10;;
9117;SDS011;4594;50.994;7.126;2022-10-13T00:06:20;8.47;;;6.07;;
9117;SDS011;4594;50.994;7.126;2022-10-13T00:08:49;11.03;;;6.37;;
9117;SDS011;4594;50.994;7.126;2022-10-13T00:11:16;8.90;;;6.20;;
9117;SDS011;4594;50.994;7.126;2022-10-13T00:13:49;7.40;;;5.83;;
9117;SDS011;4594;50.994;7.126;2022-10-13T00:16:17;9.40;;;6.00;;
9117;SDS011;4594;50.994;7.126;2022-10-13T00:18:44;6.00;;;5.40;;
9117;SDS011;4594;50.994;7.126;2022-10-13T00:21:12;9.43;;;5.70;;
9117;SDS011;4594;50.994;7.126;2022-10-13T00:23:41;12.07;;;6.30;;
9117;SDS011;4594;50.994;7.126;2022-10-13T00:26:08;7.50;;;5.83;;
9117;SDS011;4594;50.994;7.126;2022-10-13T00:28:37;7.77;;;6.07;;
9117;SDS011;4594;50.994;7.126;2022-10-13T00:31:14;6.63;;;6.03;;
9117;SDS011;4594;50.994;7.126;2022-10-13T00:33:48;7.20;;;6.10;;
9117;SDS011;4594;50.994;7.126;2022-10-13T00:36:15;8.73;;;6.17;;
9117;SDS011;4594;50.994;7.126;2022-10-13T00:38:41;8.70;;;5.70;;
9117;SDS011;4594;50.994;7.126;2022-10-13T00:41:07;7.97;;;5.63;;
9117;SDS011;4594;50.994;7.126;2022-10-13T00:46:27;8.33;;;5.83;;
9117;SDS011;4594;50.994;7.126;2022-10-13T00:49:08;7.93;;;6.37;;
9117;SDS011;4594;50.994;7.126;2022-10-13T00:51:38;6.77;;;5.80;;
9117;SDS011;4594;50.994;7.126;2022-10-13T00:54:10;8.93;;;5.97;;
9117;SDS011;4594;50.994;7.126;2022-10-13T00:56:44;8.70;;;6.53;;
9117;SDS011;4594;50.994;7.126;2022-10-13T00:59:16;12.33;;;6.60;;
9117;SDS011;4594;50.994;7.126;2022-10-13T01:01:50;12.03;;;6.77;;
9117;SDS011;4594;50.994;7.126;2022-10-13T01:04:16;8.73;;;6.00;;
9117;SDS011;4594;50.994;7.126;2022-10-13T01:06:48;8.80;;;6.43;;
9117;SDS011;4594;50.994;7.126;2022-10-13T01:09:14;7.50;;;6.50;;
9117;SDS011;4594;50.994;7.126;2022-10-13T01:15:11;12.23;;;5.90;;
9117;SDS011;4594;50.994;7.126;2022-10-13T01:26:19;7.83;;;5.47;;
9117;SDS011;4594;50.994;7.126;2022-10-13T01:37:38;9.67;;;6.07;;
9117;SDS011;4594;50.994;7.126;2022-10-13T01:40:42;9.33;;;7.13;;
9117;SDS011;4594;50.994;7.126;2022-10-13T01:46:36;7.83;;;6.30;;
9117;SDS011;4594;50.994;7.126;2022-10-13T01:49:06;8.47;;;5.90;;
9117;SDS011;4594;50.994;7.126;2022-10-13T01:51:37;7.90;;;6.40;;
9117;SDS011;4594;50.994;7.126;2022-10-13T01:54:05;7.03;;;5.90;;
9117;SDS011;4594;50.994;7.126;2022-10-13T01:56:31;8.23;;;6.40;;
9117;SDS011;4594;50.994;7.126;2022-10-13T01:58:57;8.10;;;6.37;;
9117;SDS011;4594;50.994;7.126;2022-10-13T02:07:44;6.00;;;5.50;;
9117;SDS011;4594;50.994;7.126;2022-10-13T02:10:39;6.80;;;5.70;;
9117;SDS011;4594;50.994;7.126;2022-10-13T02:13:18;8.27;;;6.03;;
9117;SDS011;4594;50.994;7.126;2022-10-13T02:15:52;8.23;;;6.10;;
9117;SDS011;4594;50.994;7.126;2022-10-13T02:18:24;8.17;;;6.67;;
9117;SDS011;4594;50.994;7.126;2022-10-13T02:20:56;8.33;;;6.60;;
9117;SDS011;4594;50.994;7.126;2022-10-13T02:23:23;8.13;;;5.90;;
9117;SDS011;4594;50.994;7.126;2022-10-13T02:25:50;6.73;;;6.03;;
9117;SDS011;4594;50.994;7.126;2022-10-13T02:28:16;10.63;;;7.00;;
9117;SDS011;4594;50.994;7.126;2022-10-13T02:30:43;7.73;;;6.20;;
9117;SDS011;4594;50.994;7.126;2022-10-13T02:33:11;10.37;;;7.10;;
9117;SDS011;4594;50.994;7.126;2022-10-13T02:35:38;7.03;;;6.20;;
9117;SDS011;4594;50.994;7.126;2022-10-13T02:38:04;7.53;;;6.20;;
9117;SDS011;4594;50.994;7.126;2022-10-13T02:40:30;8.27;;;6.20;;
9117;SDS011;4594;50.994;7.126;2022-10-13T02:42:56;7.70;;;6.57;;
9117;SDS011;4594;50.994;7.126;2022-10-13T02:45:22;9.37;;;6.83;;
9117;SDS011;4594;50.994;7.126;2022-10-13T02:47:48;10.83;;;6.93;;
9117;SDS011;4594;50.994;7.126;2022-10-13T02:50:14;9.20;;;6.33;;
9117;SDS011;4594;50.994;7.126;2022-10-13T02:52:39;6.67;;;5.87;;
9117;SDS011;4594;50.994;7.126;2022-10-13T02:55:05;8.73;;;6.90;;
9117;SDS011;4594;50.994;7.126;2022-10-13T02:57:32;10.47;;;6.50;;
9117;SDS011;4594;50.994;7.126;2022-10-13T02:59:58;8.20;;;6.47;;
9117;SDS011;4594;50.994;7.126;2022-10-13T03:02:25;9.80;;;6.10;;
9117;SDS011;4594;50.994;7.126;2022-10-13T03:04:51;7.87;;;5.83;;
9117;SDS011;4594;50.994;7.126;2022-10-13T03:07:17;9.80;;;6.40;;
9117;SDS011;4594;50.994;7.126;2022-10-13T03:09:43;7.67;;;6.07;;
9117;SDS011;4594;50.994;7.126;2022-10-13T03:12:09;7.67;;;6.43;;
9117;SDS011;4594;50.994;7.126;2022-10-13T03:14:34;11.13;;;6.83;;
9117;SDS011;4594;50.994;7.126;2022-10-13T03:17:00;11.63;;;7.00;;
9117;SDS011;4594;50.994;7.126;2022-10-13T03:19:26;7.00;;;5.83;;
9117;SDS011;4594;50.994;7.126;2022-10-13T03:21:52;8.00;;;6.40;;
9117;SDS011;4594;50.994;7.126;2022-10-13T03:24:17;9.03;;;6.97;;
9117;SDS011;4594;50.994;7.126;2022-10-13T03:26:43;10.73;;;7.07;;
9117;SDS011;4594;50.994;7.126;2022-10-13T03:29:13;8.43;;;6.67;;
9117;SDS011;4594;50.994;7.126;2022-10-13T03:31:41;8.93;;;6.53;;
9117;SDS011;4594;50.994;7.126;2022-10-13T03:34:10;9.60;;;6.93;;
9117;SDS011;4594;50.994;7.126;2022-10-13T03:36:37;7.07;;;6.33;;
9117;SDS011;4594;50.994;7.126;2022-10-13T03:39:03;10.90;;;7.43;;
9117;SDS011;4594;50.994;7.126;2022-10-13T03:41:29;11.67;;;7.27;;
9117;SDS011;4594;50.994;7.126;2022-10-13T03:43:54;7.67;;;6.90;;
9117;SDS011;4594;50.994;7.126;2022-10-13T03:46:20;11.63;;;6.33;;
9117;SDS011;4594;50.994;7.126;2022-10-13T03:48:50;10.73;;;7.40;;
9117;SDS011;4594;50.994;7.126;2022-10-13T03:51:16;12.77;;;7.27;;
9117;SDS011;4594;50.994;7.126;2022-10-13T03:53:44;9.50;;;7.00;;
9117;SDS011;4594;50.994;7.126;2022-10-13T03:56:30;9.47;;;7.17;;
9117;SDS011;4594;50.994;7.126;2022-10-13T03:58:56;9.60;;;6.93;;
9117;SDS011;4594;50.994;7.126;2022-10-13T04:01:25;8.93;;;6.70;;
9117;SDS011;4594;50.994;7.126;2022-10-13T04:03:54;10.53;;;7.50;;
9117;SDS011;4594;50.994;7.126;2022-10-13T04:06:21;12.83;;;7.93;;
9117;SDS011;4594;50.994;7.126;2022-10-13T04:08:49;11.43;;;7.33;;
9117;SDS011;4594;50.994;7.126;2022-10-13T04:11:16;8.73;;;7.67;;
9117;SDS011;4594;50.994;7.126;2022-10-13T04:13:43;11.67;;;7.10;;
9117;SDS011;4594;50.994;7.126;2022-10-13T04:16:14;11.23;;;7.40;;
9117;SDS011;4594;50.994;7.126;2022-10-13T04:18:55;10.53;;;7.47;;
9117;SDS011;4594;50.994;7.126;2022-10-13T04:21:24;11.60;;;7.30;;
9117;SDS011;4594;50.994;7.126;2022-10-13T04:23:53;7.93;;;6.27;;
9117;SDS011;4594;50.994;7.126;2022-10-13T04:26:21;7.17;;;6.33;;
9117;SDS011;4594;50.994;7.126;2022-10-13T04:28:49;9.97;;;7.30;;
9117;SDS011;4594;50.994;7.126;2022-10-13T04:31:17;13.20;;;6.77;;
9117;SDS011;4594;50.994;7.126;2022-10-13T04:33:45;10.23;;;6.93;;
9117;SDS011;4594;50.994;7.126;2022-10-13T04:36:12;11.97;;;7.43;;
9117;SDS011;4594;50.994;7.126;2022-10-13T04:38:40;11.13;;;7.07;;
9117;SDS011;4594;50.994;7.126;2022-10-13T04:41:07;11.03;;;7.50;;
9117;SDS011;4594;50.994;7.126;2022-10-13T04:43:37;10.77;;;7.07;;
9117;SDS011;4594;50.994;7.126;2022-10-13T04:46:04;9.47;;;7.57;;
9117;SDS011;4594;50.994;7.126;2022-10-13T04:48:37;10.70;;;7.47;;
9117;SDS011;4594;50.994;7.126;2022-10-13T04:51:07;14.50;;;7.10;;
9117;SDS011;4594;50.994;7.126;2022-10-13T04:53:37;9.33;;;6.77;;
9117;SDS011;4594;50.994;7.126;2022-10-13T04:56:04;8.67;;;7.17;;
9117;SDS011;4594;50.994;7.126;2022-10-13T04:58:34;10.40;;;7.23;;
9117;SDS011;4594;50.994;7.126;2022-10-13T05:01:01;8.97;;;6.53;;
9117;SDS011;4594;50.994;7.126;2022-10-13T05:03:29;11.07;;;6.50;;
9117;SDS011;4594;50.994;7.126;2022-10-13T05:05:56;10.17;;;7.10;;
9117;SDS011;4594;50.994;7.126;2022-10-13T05:08:21;11.33;;;7.13;;
9117;SDS011;4594;50.994;7.126;2022-10-13T05:10:57;8.80;;;7.10;;
9117;SDS011;4594;50.994;7.126;2022-10-13T05:13:25;9.37;;;6.67;;
9117;SDS011;4594;50.994;7.126;2022-10-13T05:15:52;8.80;;;6.93;;
9117;SDS011;4594;50.994;7.126;2022-10-13T05:18:18;10.97;;;7.30;;
9117;SDS011;4594;50.994;7.126;2022-10-13T05:20:44;13.13;;;8.10;;
9117;SDS011;4594;50.994;7.126;2022-10-13T05:23:10;10.80;;;7.37;;
9117;SDS011;4594;50.994;7.126;2022-10-13T05:25:37;13.17;;;7.30;;
9117;SDS011;4594;50.994;7.126;2022-10-13T05:28:03;12.37;;;6.87;;
9117;SDS011;4594;50.994;7.126;2022-10-13T05:30:30;11.77;;;8.00;;
9117;SDS011;4594;50.994;7.126;2022-10-13T05:32:56;13.67;;;7.33;;
9117;SDS011;4594;50.994;7.126;2022-10-13T05:35:22;9.70;;;7.53;;
9117;SDS011;4594;50.994;7.126;2022-10-13T05:37:49;14.83;;;8.07;;
9117;SDS011;4594;50.994;7.126;2022-10-13T05:40:15;13.67;;;7.80;;
9117;SDS011;4594;50.994;7.126;2022-10-13T05:42:41;9.10;;;6.53;;
9117;SDS011;4594;50.994;7.126;2022-10-13T05:45:07;14.73;;;7.77;;
9117;SDS011;4594;50.994;7.126;2022-10-13T05:47:34;10.07;;;6.90;;
9117;SDS011;4594;50.994;7.126;2022-10-13T05:50:00;8.30;;;6.43;;
9117;SDS011;4594;50.994;7.126;2022-10-13T05:52:26;11.40;;;6.70;;
9117;SDS011;4594;50.994;7.126;2022-10-13T05:54:57;12.47;;;6.90;;
9117;SDS011;4594;50.994;7.126;2022-10-13T05:57:27;9.33;;;7.27;;
9117;SDS011;4594;50.994;7.126;2022-10-13T06:00:02;9.30;;;6.70;;
9117;SDS011;4594;50.994;7.126;2022-10-13T06:02:33;9.47;;;6.93;;
9117;SDS011;4594;50.994;7.126;2022-10-13T06:05:26;11.50;;;7.43;;
9117;SDS011;4594;50.994;7.126;2022-10-13T06:07:52;9.40;;;7.00;;
9117;SDS011;4594;50.994;7.126;2022-10-13T06:10:19;8.43;;;7.33;;
9117;SDS011;4594;50.994;7.126;2022-10-13T06:12:45;9.80;;;6.63;;
9117;SDS011;4594;50.994;7.126;2022-10-13T06:15:11;11.50;;;7.00;;
9117;SDS011;4594;50.994;7.126;2022-10-13T06:17:37;7.77;;;6.63;;
9117;SDS011;4594;50.994;7.126;2022-10-13T06:20:04;9.30;;;7.27;;
9117;SDS011;4594;50.994;7.126;2022-10-13T06:22:32;11.63;;;7.47;;
9117;SDS011;4594;50.994;7.126;2022-10-13T06:24:59;11.90;;;7.67;;
9117;SDS011;4594;50.994;7.126;2022-10-13T06:27:25;9.47;;;6.87;;
9117;SDS011;4594;50.994;7.126;2022-10-13T06:29:51;12.43;;;7.40;;
9117;SDS011;4594;50.994;7.126;2022-10-13T06:32:16;12.13;;;7.67;;
9117;SDS011;4594;50.994;7.126;2022-10-13T06:34:42;9.57;;;7.63;;
9117;SDS011;4594;50.994;7.126;2022-10-13T06:37:08;9.87;;;6.37;;
9117;SDS011;4594;50.994;7.126;2022-10-13T06:39:34;9.00;;;6.87;;
9117;SDS011;4594;50.994;7.126;2022-10-13T06:41:59;9.70;;;7.23;;
9117;SDS011;4594;50.994;7.126;2022-10-13T06:44:25;7.57;;;6.87;;
9117;SDS011;4594;50.994;7.126;2022-10-13T06:46:51;7.87;;;6.77;;
9117;SDS011;4594;50.994;7.126;2022-10-13T06:49:17;8.97;;;6.80;;
9117;SDS011;4594;50.994;7.126;2022-10-13T06:51:43;10.23;;;6.80;;
9117;SDS011;4594;50.994;7.126;2022-10-13T06:54:09;8.77;;;6.40;;
9117;SDS011;4594;50.994;7.126;2022-10-13T06:56:34;8.63;;;6.60;;
9117;SDS011;4594;50.994;7.126;2022-10-13T06:59:00;10.40;;;6.53;;
9117;SDS011;4594;50.994;7.126;2022-10-13T07:01:25;10.13;;;7.10;;
9117;SDS011;4594;50.994;7.126;2022-10-13T07:03:51;8.67;;;6.23;;
9117;SDS011;4594;50.994;7.126;2022-10-13T07:06:17;14.40;;;7.43;;
9117;SDS011;4594;50.994;7.126;2022-10-13T07:08:43;9.87;;;7.20;;
9117;SDS011;4594;50.994;7.126;2022-10-13T07:11:10;10.50;;;7.00;;
9117;SDS011;4594;50.994;7.126;2022-10-13T07:13:38;11.87;;;7.17;;
9117;SDS011;4594;50.994;7.126;2022-10-13T07:16:06;10.83;;;6.67;;
9117;SDS011;4594;50.994;7.126;2022-10-13T07:18:33;15.00;;;7.53;;
9117;SDS011;4594;50.994;7.126;2022-10-13T07:20:59;10.50;;;7.00;;
9117;SDS011;4594;50.994;7.126;2022-10-13T07:23:25;8.00;;;6.07;;
9117;SDS011;4594;50.994;7.126;2022-10-13T07:25:52;7.57;;;6.13;;
9117;SDS011;4594;50.994;7.126;2022-10-13T07:28:20;10.57;;;7.00;;
9117;SDS011;4594;50.994;7.126;2022-10-13T07:30:50;8.83;;;6.67;;
9117;SDS011;4594;50.994;7.126;2022-10-13T07:33:17;12.10;;;6.40;;
9117;SDS011;4594;50.994;7.126;2022-10-13T07:35:44;10.63;;;6.43;;
9117;SDS011;4594;50.994;7.126;2022-10-13T07:38:10;8.47;;;6.20;;
9117;SDS011;4594;50.994;7.126;2022-10-13T07:40:37;9.87;;;6.20;;
9117;SDS011;4594;50.994;7.126;2022-10-13T07:43:03;9.43;;;7.13;;
9117;SDS011;4594;50.994;7.126;2022-10-13T07:45:28;10.37;;;6.67;;
9117;SDS011;4594;50.994;7.126;2022-10-13T07:47:55;11.27;;;6.77;;
9117;SDS011;4594;50.994;7.126;2022-10-13T07:50:21;10.03;;;6.67;;
9117;SDS011;4594;50.994;7.126;2022-10-13T07:52:47;11.07;;;6.07;;
9117;SDS011;4594;50.994;7.126;2022-10-13T07:55:13;11.03;;;6.03;;
9117;SDS011;4594;50.994;7.126;2022-10-13T07:57:38;8.00;;;5.80;;
9117;SDS011;4594;50.994;7.126;2022-10-13T08:00:04;9.87;;;6.10;;
9117;SDS011;4594;50.994;7.126;2022-10-13T08:02:31;7.37;;;5.63;;
9117;SDS011;4594;50.994;7.126;2022-10-13T08:04:58;6.67;;;5.83;;
9117;SDS011;4594;50.994;7.126;2022-10-13T08:07:24;6.23;;;5.63;;
9117;SDS011;4594;50.994;7.126;2022-10-13T08:09:50;10.63;;;5.57;;
9117;SDS011;4594;50.994;7.126;2022-10-13T08:12:15;11.73;;;6.23;;
9117;SDS011;4594;50.994;7.126;2022-10-13T08:14:41;11.53;;;6.33;;
9117;SDS011;4594;50.994;7.126;2022-10-13T08:17:07;9.13;;;6.23;;
9117;SDS011;4594;50.994;7.126;2022-10-13T08:19:32;7.57;;;5.90;;
9117;SDS011;4594;50.994;7.126;2022-10-13T08:21:58;10.03;;;6.50;;
9117;SDS011;4594;50.994;7.126;2022-10-13T08:24:24;11.30;;;5.80;;
9117;SDS011;4594;50.994;7.126;2022-10-13T08:26:50;15.43;;;6.33;;
9117;SDS011;4594;50.994;7.126;2022-10-13T08:29:16;10.63;;;6.40;;
9117;SDS011;4594;50.994;7.126;2022-10-13T08:31:42;9.93;;;5.97;;
9117;SDS011;4594;50.994;7.126;2022-10-13T08:34:08;8.33;;;5.63;;
9117;SDS011;4594;50.994;7.126;2022-10-13T08:36:36;9.70;;;6.27;;
9117;SDS011;4594;50.994;7.126;2022-10-13T08:39:02;8.87;;;5.70;;
9117;SDS011;4594;50.994;7.126;2022-10-13T08:41:32;7.67;;;5.60;;
9117;SDS011;4594;50.994;7.126;2022-10-13T08:44:05;10.30;;;6.30;;
9117;SDS011;4594;50.994;7.126;2022-10-13T08:46:53;8.07;;;5.07;;
9117;SDS011;4594;50.994;7.126;2022-10-13T08:49:42;6.67;;;5.30;;
9117;SDS011;4594;50.994;7.126;2022-10-13T08:52:19;6.97;;;5.13;;
9117;SDS011;4594;50.994;7.126;2022-10-13T08:54:49;6.47;;;5.13;;
9117;SDS011;4594;50.994;7.126;2022-10-13T08:57:18;7.17;;;5.50;;
9117;SDS011;4594;50.994;7.126;2022-10-13T08:59:44;11.73;;;6.17;;
9117;SDS011;4594;50.994;7.126;2022-10-13T09:02:21;8.67;;;6.10;;
9117;SDS011;4594;50.994;7.126;2022-10-13T09:04:55;7.80;;;5.37;;
9117;SDS011;4594;50.994;7.126;2022-10-13T09:07:27;7.53;;;5.93;;
9117;SDS011;4594;50.994;7.126;2022-10-13T09:10:01;10.63;;;6.57;;
9117;SDS011;4594;50.994;7.126;2022-10-13T09:12:28;8.83;;;5.90;;
9117;SDS011;4594;50.994;7.126;2022-10-13T09:15:16;8.53;;;5.87;;
9117;SDS011;4594;50.994;7.126;2022-10-13T09:17:42;10.33;;;6.07;;
9117;SDS011;4594;50.994;7.126;2022-10-13T09:20:21;12.20;;;6.13;;
9117;SDS011;4594;50.994;7.126;2022-10-13T09:25:47;12.17;;;5.63;;
9117;SDS011;4594;50.994;7.126;2022-10-13T09:28:25;9.60;;;6.07;;
9117;SDS011;4594;50.994;7.126;2022-10-13T09:30:59;5.83;;;5.03;;
9117;SDS011;4594;50.994;7.126;2022-10-13T09:33:28;10.33;;;5.93;;
9117;SDS011;4594;50.994;7.126;2022-10-13T09:38:25;9.07;;;5.33;;
9117;SDS011;4594;50.994;7.126;2022-10-13T09:40:59;9.10;;;5.67;;
9117;SDS011;4594;50.994;7.126;2022-10-13T09:48:50;8.60;;;5.23;;
9117;SDS011;4594;50.994;7.126;2022-10-13T09:51:32;7.60;;;5.83;;
9117;SDS011;4594;50.994;7.126;2022-10-13T09:54:03;6.40;;;5.07;;
9117;SDS011;4594;50.994;7.126;2022-10-13T09:56:48;6.23;;;5.33;;
9117;SDS011;4594;50.994;7.126;2022-10-13T09:59:34;11.40;;;5.33;;
9117;SDS011;4594;50.994;7.126;2022-10-13T10:04:58;8.23;;;5.50;;
9117;SDS011;4594;50.994;7.126;2022-10-13T10:07:35;5.47;;;4.77;;
9117;SDS011;4594;50.994;7.126;2022-10-13T10:10:05;9.23;;;5.60;;
9117;SDS011;4594;50.994;7.126;2022-10-13T10:12:48;7.57;;;5.40;;
9117;SDS011;4594;50.994;7.126;2022-10-13T10:15:16;10.53;;;5.10;;
9117;SDS011;4594;50.994;7.126;2022-10-13T10:18:02;8.73;;;5.43;;
9117;SDS011;4594;50.994;7.126;2022-10-13T10:26:21;5.90;;;4.63;;
9117;SDS011;4594;50.994;7.126;2022-10-13T10:29:05;12.13;;;5.07;;
9117;SDS011;4594;50.994;7.126;2022-10-13T10:31:54;8.30;;;4.73;;
9117;SDS011;4594;50.994;7.126;2022-10-13T10:34:41;6.83;;;4.70;;
9117;SDS011;4594;50.994;7.126;2022-10-13T10:41:30;6.23;;;4.27;;
9117;SDS011;4594;50.994;7.126;2022-10-13T10:46:31;8.97;;;4.20;;
9117;SDS011;4594;50.994;7.126;2022-10-13T10:49:24;5.53;;;4.10;;
9117;SDS011;4594;50.994;7.126;2022-10-13T10:51:56;7.47;;;4.50;;
9117;SDS011;4594;50.994;7.126;2022-10-13T10:57:09;5.40;;;3.53;;
9117;SDS011;4594;50.994;7.126;2022-10-13T11:02:36;7.77;;;4.90;;
9117;SDS011;4594;50.994;7.126;2022-10-13T11:05:57;5.37;;;4.23;;
9117;SDS011;4594;50.994;7.126;2022-10-13T11:08:40;5.40;;;4.00;;
9117;SDS011;4594;50.994;7.126;2022-10-13T11:13:59;6.47;;;3.67;;
9117;SDS011;4594;50.994;7.126;2022-10-13T11:16:31;9.60;;;4.60;;
9117;SDS011;4594;50.994;7.126;2022-10-13T11:19:29;8.10;;;4.20;;
9117;SDS011;4594;50.994;7.126;2022-10-13T11:40:31;6.90;;;3.97;;
9117;SDS011;4594;50.994;7.126;2022-10-13T11:43:01;4.50;;;4.00;;
9117;SDS011;4594;50.994;7.126;2022-10-13T11:53:56;6.90;;;4.20;;
9117;SDS011;4594;50.994;7.126;2022-10-13T11:56:55;4.77;;;3.73;;
9117;SDS011;4594;50.994;7.126;2022-10-13T12:04:40;5.73;;;4.30;;
9117;SDS011;4594;50.994;7.126;2022-10-13T12:07:09;10.30;;;4.40;;
9117;SDS011;4594;50.994;7.126;2022-10-13T12:09:49;6.47;;;4.50;;
9117;SDS011;4594;50.994;7.126;2022-10-13T12:12:19;8.80;;;4.73;;
9117;SDS011;4594;50.994;7.126;2022-10-13T12:14:48;9.97;;;4.83;;
9117;SDS011;4594;50.994;7.126;2022-10-13T12:17:18;6.53;;;4.30;;
9117;SDS011;4594;50.994;7.126;2022-10-13T12:20:21;11.83;;;5.23;;
9117;SDS011;4594;50.994;7.126;2022-10-13T12:22:53;7.27;;;4.43;;
9117;SDS011;4594;50.994;7.126;2022-10-13T12:25:22;7.03;;;4.50;;
9117;SDS011;4594;50.994;7.126;2022-10-13T12:27:56;8.97;;;4.83;;
9117;SDS011;4594;50.994;7.126;2022-10-13T12:30:29;8.97;;;4.87;;
9117;SDS011;4594;50.994;7.126;2022-10-13T12:33:01;8.13;;;5.00;;
9117;SDS011;4594;50.994;7.126;2022-10-13T12:35:31;9.60;;;4.90;;
9117;SDS011;4594;50.994;7.126;2022-10-13T12:38:01;10.90;;;4.83;;
9117;SDS011;4594;50.994;7.126;2022-10-13T12:40:31;10.83;;;5.20;;
9117;SDS011;4594;50.994;7.126;2022-10-13T12:42:58;15.33;;;5.17;;
9117;SDS011;4594;50.994;7.126;2022-10-13T12:45:26;8.40;;;5.00;;
9117;SDS011;4594;50.994;7.126;2022-10-13T12:47:56;7.10;;;4.50;;
9117;SDS011;4594;50.994;7.126;2022-10-13T12:52:55;6.20;;;4.53;;
9117;SDS011;4594;50.994;7.126;2022-10-13T12:55:52;8.50;;;4.70;;
9117;SDS011;4594;50.994;7.126;2022-10-13T12:58:24;5.03;;;4.53;;
9117;SDS011;4594;50.994;7.126;2022-10-13T13:04:01;14.27;;;5.10;;
9117;SDS011;4594;50.994;7.126;2022-10-13T13:12:04;6.70;;;4.63;;
9117;SDS011;4594;50.994;7.126;2022-10-13T13:14:40;6.37;;;4.20;;
9117;SDS011;4594;50.994;7.126;2022-10-13T13:19:43;8.17;;;4.57;;
9117;SDS011;4594;50.994;7.126;2022-10-13T13:22:19;7.20;;;4.70;;
9117;SDS011;4594;50.994;7.126;2022-10-13T13:24:45;5.80;;;4.47;;
9117;SDS011;4594;50.994;7.126;2022-10-13T13:27:19;10.13;;;4.57;;
9117;SDS011;4594;50.994;7.126;2022-10-13T13:29:58;5.97;;;4.67;;
9117;SDS011;4594;50.994;7.126;2022-10-13T13:32:25;7.93;;;4.30;;
9117;SDS011;4594;50.994;7.126;2022-10-13T13:34:52;7.50;;;4.30;;
9117;SDS011;4594;50.994;7.126;2022-10-13T13:37:32;5.50;;;3.97;;
9117;SDS011;4594;50.994;7.126;2022-10-13T13:40:03;10.63;;;4.13;;
9117;SDS011;4594;50.994;7.126;2022-10-13T13:42:30;10.20;;;5.07;;
9117;SDS011;4594;50.994;7.126;2022-10-13T13:44:57;8.00;;;4.77;;
9117;SDS011;4594;50.994;7.126;2022-10-13T13:47:23;8.53;;;5.20;;
9117;SDS011;4594;50.994;7.126;2022-10-13T13:49:52;8.10;;;4.67;;
9117;SDS011;4594;50.994;7.126;2022-10-13T13:52:20;6.63;;;4.60;;
9117;SDS011;4594;50.994;7.126;2022-10-13T13:54:49;6.87;;;4.00;;
9117;SDS011;4594;50.994;7.126;2022-10-13T13:57:16;6.80;;;4.07;;
9117;SDS011;4594;50.994;7.126;2022-10-13T13:59:43;7.53;;;4.57;;
9117;SDS011;4594;50.994;7.126;2022-10-13T14:02:14;7.10;;;3.73;;
9117;SDS011;4594;50.994;7.126;2022-10-13T14:04:44;5.47;;;3.83;;
9117;SDS011;4594;50.994;7.126;2022-10-13T14:07:10;6.37;;;4.53;;
9117;SDS011;4594;50.994;7.126;2022-10-13T14:09:37;7.53;;;4.40;;
9117;SDS011;4594;50.994;7.126;2022-10-13T14:12:03;5.37;;;3.80;;
9117;SDS011;4594;50.994;7.126;2022-10-13T14:14:30;6.40;;;4.10;;
9117;SDS011;4594;50.994;7.126;2022-10-13T14:16:57;7.07;;;4.20;;
9117;SDS011;4594;50.994;7.126;2022-10-13T14:19:24;6.07;;;4.10;;
9117;SDS011;4594;50.994;7.126;2022-10-13T14:21:50;4.70;;;3.87;;
9117;SDS011;4594;50.994;7.126;2022-10-13T14:24:17;5.50;;;4.37;;
9117;SDS011;4594;50.994;7.126;2022-10-13T14:26:43;6.80;;;4.40;;
9117;SDS011;4594;50.994;7.126;2022-10-13T14:29:09;4.03;;;3.73;;
9117;SDS011;4594;50.994;7.126;2022-10-13T14:31:34;5.77;;;4.43;;
9117;SDS011;4594;50.994;7.126;2022-10-13T14:34:00;5.83;;;4.27;;
9117;SDS011;4594;50.994;7.126;2022-10-13T14:36:26;5.20;;;4.30;;
9117;SDS011;4594;50.994;7.126;2022-10-13T14:38:52;9.93;;;4.43;;
9117;SDS011;4594;50.994;7.126;2022-10-13T14:41:19;4.70;;;4.23;;
9117;SDS011;4594;50.994;7.126;2022-10-13T14:43:45;9.13;;;4.67;;
9117;SDS011;4594;50.994;7.126;2022-10-13T14:46:11;7.17;;;4.17;;
9117;SDS011;4594;50.994;7.126;2022-10-13T14:48:37;6.57;;;4.17;;
9117;SDS011;4594;50.994;7.126;2022-10-13T14:51:04;7.77;;;4.23;;
9117;SDS011;4594;50.994;7.126;2022-10-13T14:53:35;4.97;;;4.43;;
9117;SDS011;4594;50.994;7.126;2022-10-13T14:56:24;9.63;;;5.23;;
9117;SDS011;4594;50.994;7.126;2022-10-13T14:58:55;6.60;;;4.30;;
9117;SDS011;4594;50.994;7.126;2022-10-13T15:01:23;6.67;;;4.40;;
9117;SDS011;4594;50.994;7.126;2022-10-13T15:03:49;6.13;;;4.87;;
9117;SDS011;4594;50.994;7.126;2022-10-13T15:06:19;11.53;;;5.07;;
9117;SDS011;4594;50.994;7.126;2022-10-13T15:08:47;7.73;;;5.13;;
9117;SDS011;4594;50.994;7.126;2022-10-13T15:11:14;7.00;;;4.87;;
9117;SDS011;4594;50.994;7.126;2022-10-13T15:13:42;9.53;;;5.03;;
9117;SDS011;4594;50.994;7.126;2022-10-13T15:16:12;6.17;;;5.57;;
9117;SDS011;4594;50.994;7.126;2022-10-13T15:18:48;5.90;;;4.60;;
9117;SDS011;4594;50.994;7.126;2022-10-13T15:21:15;8.93;;;4.77;;
9117;SDS011;4594;50.994;7.126;2022-10-13T15:23:41;7.93;;;5.40;;
9117;SDS011;4594;50.994;7.126;2022-10-13T15:26:07;8.27;;;5.60;;
9117;SDS011;4594;50.994;7.126;2022-10-13T15:28:37;5.97;;;4.90;;
9117;SDS011;4594;50.994;7.126;2022-10-13T15:31:08;7.60;;;5.17;;
9117;SDS011;4594;50.994;7.126;2022-10-13T15:33:33;6.60;;;5.03;;
9117;SDS011;4594;50.994;7.126;2022-10-13T15:35:59;4.80;;;4.30;;
9117;SDS011;4594;50.994;7.126;2022-10-13T15:38:25;6.80;;;5.13;;
9117;SDS011;4594;50.994;7.126;2022-10-13T15:40:51;7.90;;;4.67;;
9117;SDS011;4594;50.994;7.126;2022-10-13T15:43:17;7.33;;;4.67;;
9117;SDS011;4594;50.994;7.126;2022-10-13T15:45:51;9.63;;;4.90;;
9117;SDS011;4594;50.994;7.126;2022-10-13T15:48:20;6.80;;;4.87;;
9117;SDS011;4594;50.994;7.126;2022-10-13T15:50:46;10.33;;;5.77;;
9117;SDS011;4594;50.994;7.126;2022-10-13T15:53:12;8.80;;;5.17;;
9117;SDS011;4594;50.994;7.126;2022-10-13T15:55:38;8.70;;;5.30;;
9117;SDS011;4594;50.994;7.126;2022-10-13T15:58:04;7.07;;;4.83;;
9117;SDS011;4594;50.994;7.126;2022-10-13T16:00:30;7.27;;;4.83;;
9117;SDS011;4594;50.994;7.126;2022-10-13T16:02:56;7.27;;;5.10;;
9117;SDS011;4594;50.994;7.126;2022-10-13T16:05:22;5.87;;;5.03;;
9117;SDS011;4594;50.994;7.126;2022-10-13T16:07:48;6.87;;;5.03;;
9117;SDS011;4594;50.994;7.126;2022-10-13T16:10:14;6.73;;;4.60;;
9117;SDS011;4594;50.994;7.126;2022-10-13T16:12:41;6.97;;;5.53;;
9117;SDS011;4594;50.994;7.126;2022-10-13T16:15:08;10.53;;;4.70;;
9117;SDS011;4594;50.994;7.126;2022-10-13T16:17:34;8.40;;;5.33;;
9117;SDS011;4594;50.994;7.126;2022-10-13T16:20:00;8.43;;;5.43;;
9117;SDS011;4594;50.994;7.126;2022-10-13T16:22:27;8.93;;;5.00;;
9117;SDS011;4594;50.994;7.126;2022-10-13T16:24:53;10.90;;;5.10;;
9117;SDS011;4594;50.994;7.126;2022-10-13T16:27:19;6.07;;;4.47;;
9117;SDS011;4594;50.994;7.126;2022-10-13T16:29:44;9.47;;;5.23;;
9117;SDS011;4594;50.994;7.126;2022-10-13T16:32:10;9.10;;;5.40;;
9117;SDS011;4594;50.994;7.126;2022-10-13T16:34:36;8.33;;;5.20;;
9117;SDS011;4594;50.994;7.126;2022-10-13T16:37:02;9.53;;;5.27;;
9117;SDS011;4594;50.994;7.126;2022-10-13T16:39:28;8.67;;;5.00;;
9117;SDS011;4594;50.994;7.126;2022-10-13T16:41:54;9.80;;;5.00;;
9117;SDS011;4594;50.994;7.126;2022-10-13T16:44:19;9.77;;;5.47;;
9117;SDS011;4594;50.994;7.126;2022-10-13T16:46:45;8.20;;;4.93;;
9117;SDS011;4594;50.994;7.126;2022-10-13T16:49:13;7.23;;;5.80;;
9117;SDS011;4594;50.994;7.126;2022-10-13T16:51:40;13.73;;;5.87;;
9117;SDS011;4594;50.994;7.126;2022-10-13T16:54:06;8.53;;;5.90;;
9117;SDS011;4594;50.994;7.126;2022-10-13T16:56:32;7.43;;;5.53;;
9117;SDS011;4594;50.994;7.126;2022-10-13T16:58:59;8.73;;;5.07;;
9117;SDS011;4594;50.994;7.126;2022-10-13T17:01:28;7.03;;;4.77;;
9117;SDS011;4594;50.994;7.126;2022-10-13T17:03:56;8.80;;;5.83;;
9117;SDS011;4594;50.994;7.126;2022-10-13T17:06:24;8.03;;;5.63;;
9117;SDS011;4594;50.994;7.126;2022-10-13T17:08:52;13.60;;;6.03;;
9117;SDS011;4594;50.994;7.126;2022-10-13T17:11:20;11.17;;;6.27;;
9117;SDS011;4594;50.994;7.126;2022-10-13T17:13:49;9.73;;;6.00;;
9117;SDS011;4594;50.994;7.126;2022-10-13T17:16:16;8.63;;;5.87;;
9117;SDS011;4594;50.994;7.126;2022-10-13T17:18:43;8.07;;;5.90;;
9117;SDS011;4594;50.994;7.126;2022-10-13T17:21:10;7.03;;;5.70;;